Time;durP1;ratioP1;P1;durP2;ratioP2;P2;SDS_P1;SDS_P2;PMS_P1;PMS_P2;Temp;Humidity;BMP_temperature;BMP_pressure;BME280_temperature;BME280_humidity;BME280_pressure;Samples;Min_cycle;Max_cycle;Signal;HPM_P1;HPM_P2
2022/04/15 00:02:17;;;;;;;;;;;11.50;71.00;;;;;;5072752;28;19908;-89
2022/04/15 00:04:43;;;;;;;;;;;11.40;70.60;;;;;;5072753;28;20042;-88
2022/04/15 00:07:10;;;;;;;;;;;11.30;70.70;;;;;;5072727;28;19909;-88
2022/04/15 00:09:36;;;;;;;;;;;11.30;71.00;;;;;;5072637;28;19908;-89
2022/04/15 00:12:07;;;;;;;;;;;11.30;72.50;;;;;;5072587;28;20389;-88
2022/04/15 00:14:34;;;;;;;;;;;11.20;72.80;;;;;;5072651;28;19909;-89
2022/04/15 00:17:00;;;;;;;;;;;11.10;72.40;;;;;;5072466;28;20022;-88
2022/04/15 00:19:25;;;;;;;;;;;11.20;72.00;;;;;;5074547;28;19955;-88
2022/04/15 00:21:51;;;;;;;;;;;11.20;72.60;;;;;;5076347;28;19989;-89
2022/04/15 00:24:16;;;;;;;;;;;11.20;72.70;;;;;;5076271;28;20061;-89
2022/04/15 00:26:42;;;;;;;;;;;11.10;73.50;;;;;;5076317;28;20277;-88
2022/04/15 00:29:07;;;;;;;;;;;11.00;73.70;;;;;;5076198;28;20278;-88
2022/04/15 00:31:33;;;;;;;;;;;10.90;73.40;;;;;;5076228;28;19912;-88
2022/04/15 00:33:59;;;;;;;;;;;10.80;73.10;;;;;;5075983;28;19921;-88
2022/04/15 00:36:25;;;;;;;;;;;10.90;73.30;;;;;;5076044;28;19922;-88
2022/04/15 00:38:50;;;;;;;;;;;10.90;74.30;;;;;;5076003;28;20369;-88
2022/04/15 00:41:16;;;;;;;;;;;10.90;73.90;;;;;;5075988;28;20027;-88
2022/04/15 00:43:42;;;;;;;;;;;11.00;73.70;;;;;;5076287;28;19966;-89
2022/04/15 00:46:08;;;;;;;;;;;10.90;73.40;;;;;;5075901;28;20377;-88
2022/04/15 00:48:35;;;;;;;;;;;10.80;73.40;;;;;;5075821;28;19916;-88
2022/04/15 00:51:00;;;;;;;;;;;10.70;73.70;;;;;;5075856;28;19999;-89
2022/04/15 00:53:28;;;;;;;;;;;10.70;74.30;;;;;;5075691;28;20390;-88
2022/04/15 00:55:57;;;;;;;;;;;10.50;73.60;;;;;;5075569;28;20007;-89
2022/04/15 00:58:24;;;;;;;;;;;10.10;73.30;;;;;;5075707;28;19973;-88
2022/04/15 01:00:52;;;;;;;;;;;9.90;74.10;;;;;;5075624;28;19916;-88
2022/04/15 01:03:20;;;;;;;;;;;9.90;75.30;;;;;;5075603;28;19912;-89
2022/04/15 01:05:46;;;;;;;;;;;10.00;75.50;;;;;;5075562;28;19908;-88
2022/04/15 01:08:12;;;;;;;;;;;10.20;75.00;;;;;;5075549;28;19908;-88
2022/04/15 01:10:38;;;;;;;;;;;10.30;74.50;;;;;;5075437;28;19908;-88
2022/04/15 01:13:06;;;;;;;;;;;10.30;73.60;;;;;;5075364;28;20397;-89
2022/04/15 01:15:32;;;;;;;;;;;10.20;73.30;;;;;;5075370;28;19958;-88
2022/04/15 01:17:58;;;;;;;;;;;10.20;73.20;;;;;;5075063;28;19966;-88
2022/04/15 01:20:25;;;;;;;;;;;10.30;72.70;;;;;;5075574;28;19917;-87
2022/04/15 01:22:56;;;;;;;;;;;10.10;73.40;;;;;;5075193;28;19909;-89
2022/04/15 01:25:22;;;;;;;;;;;9.90;74.30;;;;;;5075208;28;19908;-88
2022/04/15 01:27:48;;;;;;;;;;;9.80;75.40;;;;;;5075156;28;19912;-88
2022/04/15 01:30:14;;;;;;;;;;;9.70;77.20;;;;;;5074977;28;20374;-88
2022/04/15 01:32:40;;;;;;;;;;;9.80;77.10;;;;;;5074818;28;19958;-89
2022/04/15 01:35:06;;;;;;;;;;;9.80;76.80;;;;;;5074922;28;20389;-89
2022/04/15 01:37:32;;;;;;;;;;;9.80;76.80;;;;;;5074923;28;20427;-88
2022/04/15 01:39:58;;;;;;;;;;;9.90;76.90;;;;;;5074869;28;19909;-88
2022/04/15 01:42:23;;;;;;;;;;;9.90;76.60;;;;;;5075053;28;20357;-88
2022/04/15 01:44:49;;;;;;;;;;;9.80;76.20;;;;;;5074786;28;20062;-89
2022/04/15 01:47:16;;;;;;;;;;;9.90;75.20;;;;;;5074498;28;19920;-88
2022/04/15 01:49:41;;;;;;;;;;;9.90;74.70;;;;;;5074621;28;20370;-89
2022/04/15 01:52:07;;;;;;;;;;;9.90;74.60;;;;;;5074618;28;20005;-88
2022/04/15 01:54:33;;;;;;;;;;;9.80;74.80;;;;;;5074615;28;20389;-89
2022/04/15 01:56:58;;;;;;;;;;;9.60;75.30;;;;;;5074153;28;20305;-88
2022/04/15 01:59:24;;;;;;;;;;;9.70;74.00;;;;;;5074551;28;20190;-89
2022/04/15 02:01:50;;;;;;;;;;;9.80;74.60;;;;;;5074482;28;19930;-88
2022/04/15 02:04:15;;;;;;;;;;;9.80;75.70;;;;;;5074439;28;20388;-88
2022/04/15 02:06:41;;;;;;;;;;;9.90;76.20;;;;;;5074334;28;19987;-89
2022/04/15 02:09:06;;;;;;;;;;;9.90;76.00;;;;;;5074231;28;20360;-88
2022/04/15 02:11:33;;;;;;;;;;;9.90;75.70;;;;;;5106450;28;20324;-88
2022/04/15 02:13:59;;;;;;;;;;;9.70;77.50;;;;;;5074103;28;19944;-89
2022/04/15 02:16:25;;;;;;;;;;;9.60;78.60;;;;;;5074153;28;19955;-88
2022/04/15 02:18:50;;;;;;;;;;;9.60;79.00;;;;;;5074092;28;19908;-88
2022/04/15 02:21:16;;;;;;;;;;;9.60;79.70;;;;;;5074321;28;20015;-88
2022/04/15 02:23:41;;;;;;;;;;;9.70;79.70;;;;;;5073991;28;20294;-89
2022/04/15 02:26:07;;;;;;;;;;;9.60;78.50;;;;;;5073957;28;19916;-89
2022/04/15 02:28:32;;;;;;;;;;;9.50;78.60;;;;;;5073912;28;19916;-88
2022/04/15 02:30:58;;;;;;;;;;;9.40;78.50;;;;;;5073813;28;19908;-89
2022/04/15 02:33:23;;;;;;;;;;;9.40;78.40;;;;;;5073515;28;19931;-89
2022/04/15 02:35:49;;;;;;;;;;;9.40;78.50;;;;;;5073739;28;19915;-88
2022/04/15 02:38:15;;;;;;;;;;;9.40;78.50;;;;;;5073766;28;20439;-89
2022/04/15 02:40:41;;;;;;;;;;;9.30;78.40;;;;;;5073407;28;19924;-88
2022/04/15 02:43:06;;;;;;;;;;;9.00;79.70;;;;;;5073178;28;19991;-89
2022/04/15 02:45:32;;;;;;;;;;;8.80;81.10;;;;;;5073646;28;19915;-89
2022/04/15 02:47:58;;;;;;;;;;;8.70;82.20;;;;;;5073592;28;19908;-88
2022/04/15 02:50:23;;;;;;;;;;;8.80;82.90;;;;;;5073590;28;19908;-88
2022/04/15 02:52:49;;;;;;;;;;;8.80;83.00;;;;;;5073438;28;19927;-88
2022/04/15 02:55:15;;;;;;;;;;;8.80;83.20;;;;;;5073479;28;20333;-88
2022/04/15 02:57:41;;;;;;;;;;;8.70;83.50;;;;;;5073512;28;20324;-89
2022/04/15 03:00:07;;;;;;;;;;;8.70;83.90;;;;;;5073227;28;20285;-89
2022/04/15 03:02:32;;;;;;;;;;;8.70;84.20;;;;;;5073394;28;19916;-88
2022/04/15 03:04:58;;;;;;;;;;;8.80;84.50;;;;;;5073352;28;20021;-89
2022/04/15 03:07:24;;;;;;;;;;;8.80;84.00;;;;;;5073304;28;19935;-89
2022/04/15 03:09:49;;;;;;;;;;;8.90;83.90;;;;;;5073495;28;20286;-88
2022/04/15 03:12:15;;;;;;;;;;;8.90;83.80;;;;;;5073179;28;20278;-88
2022/04/15 03:14:41;;;;;;;;;;;8.90;83.70;;;;;;5073240;28;19908;-89
2022/04/15 03:17:07;;;;;;;;;;;8.80;83.90;;;;;;5073236;28;19908;-89
2022/04/15 03:19:32;;;;;;;;;;;8.70;84.30;;;;;;5073197;28;19915;-88
2022/04/15 03:21:58;;;;;;;;;;;8.80;85.00;;;;;;5073188;28;19915;-88
2022/04/15 03:24:23;;;;;;;;;;;8.90;84.70;;;;;;5073443;28;20286;-88
2022/04/15 03:26:49;;;;;;;;;;;8.90;84.10;;;;;;5073100;28;19913;-88
2022/04/15 03:29:15;;;;;;;;;;;9.00;83.40;;;;;;5073074;28;19962;-88
2022/04/15 03:31:41;;;;;;;;;;;9.10;83.20;;;;;;5083574;22;19986;-88
2022/04/15 03:34:06;;;;;;;;;;;9.00;82.10;;;;;;5093204;28;20329;-89
2022/04/15 03:36:32;;;;;;;;;;;8.90;81.70;;;;;;5093214;28;19995;-88
2022/04/15 03:38:57;;;;;;;;;;;8.80;81.90;;;;;;5093737;28;19946;-89
2022/04/15 03:41:23;;;;;;;;;;;8.70;82.40;;;;;;5093193;28;19973;-89
2022/04/15 03:43:50;;;;;;;;;;;8.80;82.50;;;;;;5093368;28;20320;-88
2022/04/15 03:46:15;;;;;;;;;;;8.80;82.50;;;;;;5093097;28;20486;-88
2022/04/15 03:48:41;;;;;;;;;;;8.80;82.70;;;;;;5074960;28;19922;-89
2022/04/15 03:51:08;;;;;;;;;;;8.70;83.50;;;;;;5093078;28;20380;-88
2022/04/15 03:53:34;;;;;;;;;;;8.60;84.10;;;;;;5075510;28;19931;-89
2022/04/15 03:56:00;;;;;;;;;;;8.60;84.90;;;;;;5097141;28;20418;-89
2022/04/15 03:58:26;;;;;;;;;;;8.50;85.30;;;;;;5097114;28;19915;-88
2022/04/15 04:00:52;;;;;;;;;;;8.50;85.50;;;;;;5096676;28;19961;-88
2022/04/15 04:03:18;;;;;;;;;;;8.30;85.00;;;;;;5097046;28;19912;-88
2022/04/15 04:05:44;;;;;;;;;;;8.10;83.50;;;;;;5078913;28;20358;-88
2022/04/15 04:08:10;;;;;;;;;;;7.90;82.90;;;;;;5096925;28;19908;-88
2022/04/15 04:10:35;;;;;;;;;;;7.80;84.70;;;;;;5096780;28;19915;-89
2022/04/15 04:13:02;;;;;;;;;;;7.90;85.30;;;;;;5096750;28;20387;-88
2022/04/15 04:15:29;;;;;;;;;;;7.90;85.70;;;;;;5097130;28;19991;-88
2022/04/15 04:17:56;;;;;;;;;;;7.90;86.00;;;;;;5096726;28;19918;-88
2022/04/15 04:20:21;;;;;;;;;;;7.90;86.20;;;;;;5096693;28;19914;-88
2022/04/15 04:22:47;;;;;;;;;;;7.90;85.90;;;;;;5096688;28;20293;-88
2022/04/15 04:25:12;;;;;;;;;;;7.80;86.00;;;;;;5096641;28;19915;-88
2022/04/15 04:27:39;;;;;;;;;;;7.80;86.60;;;;;;5096820;28;19999;-87
2022/04/15 04:30:05;;;;;;;;;;;7.90;86.40;;;;;;5096047;28;20006;-88
2022/04/15 04:32:31;;;;;;;;;;;7.90;86.50;;;;;;5096102;28;19927;-88
2022/04/15 04:34:56;;;;;;;;;;;7.60;85.60;;;;;;5096522;28;20269;-87
2022/04/15 04:37:22;;;;;;;;;;;7.40;85.80;;;;;;5096629;28;19933;-87
2022/04/15 04:39:47;;;;;;;;;;;7.40;86.20;;;;;;5096579;28;19915;-87
2022/04/15 04:42:14;;;;;;;;;;;7.20;86.50;;;;;;5094977;28;20370;-88
2022/04/15 04:44:39;;;;;;;;;;;7.10;88.00;;;;;;5096198;28;19908;-88
2022/04/15 04:47:06;;;;;;;;;;;7.20;88.90;;;;;;5096196;28;19908;-88
2022/04/15 04:49:31;;;;;;;;;;;7.30;89.50;;;;;;5096081;28;19912;-88
2022/04/15 04:51:57;;;;;;;;;;;7.40;90.00;;;;;;5094786;28;19925;-88
2022/04/15 04:54:22;;;;;;;;;;;7.40;90.40;;;;;;5095922;28;20003;-88
2022/04/15 04:56:48;;;;;;;;;;;7.40;90.30;;;;;;5095840;28;20374;-88
2022/04/15 04:59:13;;;;;;;;;;;7.40;90.00;;;;;;5082060;28;19960;-87
2022/04/15 05:01:39;;;;;;;;;;;7.50;90.20;;;;;;5095234;28;20006;-87
2022/04/15 05:04:04;;;;;;;;;;;7.70;90.20;;;;;;5089463;28;20358;-88
2022/04/15 05:06:30;;;;;;;;;;;7.80;90.30;;;;;;5078624;28;20433;-87
2022/04/15 05:08:55;;;;;;;;;;;7.80;90.10;;;;;;5089703;28;20392;-88
2022/04/15 05:11:21;;;;;;;;;;;7.80;89.70;;;;;;5095737;28;19958;-88
2022/04/15 05:13:47;;;;;;;;;;;7.70;88.70;;;;;;5086248;28;19964;-87
2022/04/15 05:16:12;;;;;;;;;;;7.70;88.20;;;;;;5075416;28;19916;-87
2022/04/15 05:18:38;;;;;;;;;;;7.80;87.90;;;;;;5076618;28;19920;-87
2022/04/15 05:21:03;;;;;;;;;;;7.90;87.50;;;;;;5076341;28;19955;-87
2022/04/15 05:23:29;;;;;;;;;;;8.00;87.40;;;;;;5084374;28;19936;-87
2022/04/15 05:25:55;;;;;;;;;;;8.10;87.90;;;;;;5087763;28;19947;-87
2022/04/15 05:28:20;;;;;;;;;;;8.20;88.70;;;;;;5076162;28;19920;-87
2022/04/15 05:30:46;;;;;;;;;;;8.40;89.00;;;;;;5085893;28;20442;-87
2022/04/15 05:33:11;;;;;;;;;;;8.40;88.70;;;;;;5083549;28;19943;-87
2022/04/15 05:35:37;;;;;;;;;;;8.50;88.40;;;;;;5095136;28;20086;-87
2022/04/15 05:38:03;;;;;;;;;;;8.60;88.40;;;;;;5097198;28;19912;-87
2022/04/15 05:40:28;;;;;;;;;;;8.80;88.40;;;;;;5094987;28;19938;-87
2022/04/15 05:42:54;;;;;;;;;;;9.00;88.10;;;;;;5091329;28;19935;-87
2022/04/15 05:45:20;;;;;;;;;;;9.30;87.50;;;;;;5081447;28;19920;-87
2022/04/15 05:47:45;;;;;;;;;;;9.50;87.00;;;;;;5079055;28;19909;-87
2022/04/15 05:50:11;;;;;;;;;;;9.70;86.40;;;;;;5098091;28;19911;-87
2022/04/15 05:55:41;;;;;;;;;;;9.60;86.10;;;;;;5104434;27;19916;-87
2022/04/15 05:58:09;;;;;;;;;;;9.90;85.70;;;;;;5079246;28;19946;-87
2022/04/15 06:00:34;;;;;;;;;;;9.90;85.60;;;;;;5087871;28;19920;-87
2022/04/15 06:03:00;;;;;;;;;;;10.00;87.00;;;;;;5081016;28;19913;-87
2022/04/15 06:05:27;;;;;;;;;;;10.10;87.00;;;;;;5095844;28;19924;-87
2022/04/15 06:07:53;;;;;;;;;;;10.20;86.80;;;;;;5088329;28;19917;-87
2022/04/15 06:11:32;;;;;;;;;;;10.40;87.00;;;;;;5129260;27;19922;-87
2022/04/15 06:14:03;;;;;;;;;;;10.60;86.40;;;;;;5127216;27;19911;-87
2022/04/15 06:16:52;;;;;;;;;;;10.80;86.30;;;;;;5111111;27;20396;-88
2022/04/15 06:19:17;;;;;;;;;;;10.90;86.10;;;;;;5104666;28;19916;-88
2022/04/15 06:21:43;;;;;;;;;;;11.10;85.70;;;;;;5106434;28;20328;-88
2022/04/15 06:24:08;;;;;;;;;;;11.20;85.20;;;;;;5106710;28;20010;-88
2022/04/15 06:26:34;;;;;;;;;;;11.40;84.90;;;;;;5101269;28;19995;-88
2022/04/15 06:29:00;;;;;;;;;;;11.50;83.80;;;;;;5098423;28;19919;-87
2022/04/15 06:31:26;;;;;;;;;;;11.60;83.40;;;;;;5101734;28;19912;-88
2022/04/15 06:33:52;;;;;;;;;;;11.70;83.10;;;;;;5100039;28;19913;-88
2022/04/15 06:36:20;;;;;;;;;;;11.90;82.10;;;;;;5118564;28;19916;-87
2022/04/15 06:38:46;;;;;;;;;;;12.00;81.10;;;;;;5101692;28;19912;-87
2022/04/15 06:41:12;;;;;;;;;;;11.90;80.20;;;;;;5096991;28;19961;-87
2022/04/15 06:43:38;;;;;;;;;;;11.90;79.10;;;;;;5106600;28;19912;-87
2022/04/15 06:46:03;;;;;;;;;;;12.00;79.60;;;;;;5101608;28;19919;-87
2022/04/15 06:48:29;;;;;;;;;;;12.10;79.40;;;;;;5103288;28;19983;-87
2022/04/15 06:50:55;;;;;;;;;;;12.20;79.30;;;;;;5103616;28;19920;-87
2022/04/15 06:53:23;;;;;;;;;;;12.20;78.40;;;;;;5098229;28;19927;-87
2022/04/15 06:55:49;;;;;;;;;;;12.40;77.90;;;;;;5101486;28;20290;-88
2022/04/15 06:58:15;;;;;;;;;;;12.60;76.80;;;;;;5110364;28;20022;-87
2022/04/15 07:00:40;;;;;;;;;;;12.80;75.10;;;;;;5099220;28;20334;-88
2022/04/15 07:03:06;;;;;;;;;;;12.90;73.10;;;;;;5096068;28;19912;-88
2022/04/15 07:05:32;;;;;;;;;;;13.10;73.10;;;;;;5095048;28;20394;-88
2022/04/15 07:07:58;;;;;;;;;;;13.30;71.90;;;;;;5105571;28;19915;-88
2022/04/15 07:10:23;;;;;;;;;;;13.40;71.50;;;;;;5091484;28;19912;-88
2022/04/15 07:12:49;;;;;;;;;;;13.40;71.10;;;;;;5092468;28;19912;-87
2022/04/15 07:15:14;;;;;;;;;;;13.60;71.00;;;;;;5088116;28;19921;-87
2022/04/15 07:17:40;;;;;;;;;;;13.80;70.00;;;;;;5087503;28;19919;-87
2022/04/15 07:20:06;;;;;;;;;;;13.80;68.80;;;;;;5089191;28;19931;-87
2022/04/15 07:22:32;;;;;;;;;;;13.70;69.00;;;;;;5084880;28;19919;-88
2022/04/15 07:24:57;;;;;;;;;;;13.70;69.70;;;;;;5085383;28;19924;-88
2022/04/15 07:27:23;;;;;;;;;;;13.70;69.30;;;;;;5077539;28;19963;-87
2022/04/15 07:29:48;;;;;;;;;;;13.60;69.90;;;;;;5071725;28;20370;-88
2022/04/15 07:32:25;;;;;;;;;;;13.60;70.90;;;;;;5077459;28;19912;-88
2022/04/15 07:34:50;;;;;;;;;;;13.60;71.40;;;;;;5071491;28;19917;-88
2022/04/15 07:37:16;;;;;;;;;;;13.70;71.30;;;;;;5070220;28;19919;-88
2022/04/15 07:39:42;;;;;;;;;;;13.90;70.70;;;;;;5070602;28;20221;-88
2022/04/15 07:42:07;;;;;;;;;;;14.10;69.80;;;;;;5072433;28;19912;-88
2022/04/15 07:44:33;;;;;;;;;;;14.30;68.80;;;;;;5069927;28;19967;-88
2022/04/15 07:46:59;;;;;;;;;;;14.40;68.20;;;;;;5077490;28;20358;-88
2022/04/15 07:49:24;;;;;;;;;;;14.50;69.90;;;;;;5084337;28;20003;-88
2022/04/15 07:51:50;;;;;;;;;;;14.60;69.60;;;;;;5091110;28;19908;-88
2022/04/15 07:54:16;;;;;;;;;;;14.80;69.90;;;;;;5075424;28;19913;-88
2022/04/15 07:56:42;;;;;;;;;;;14.90;68.70;;;;;;5081012;28;19912;-88
2022/04/15 07:59:07;;;;;;;;;;;15.10;67.80;;;;;;5075377;28;19912;-88
2022/04/15 08:01:33;;;;;;;;;;;15.20;66.20;;;;;;5070988;28;19974;-87
2022/04/15 08:03:59;;;;;;;;;;;15.30;67.50;;;;;;5072172;28;19920;-88
2022/04/15 08:06:25;;;;;;;;;;;15.30;67.40;;;;;;5071675;28;19913;-88
2022/04/15 08:08:54;;;;;;;;;;;15.30;67.20;;;;;;5069916;28;19912;-88
2022/04/15 08:11:20;;;;;;;;;;;15.40;67.10;;;;;;5072866;28;20330;-88
2022/04/15 08:13:45;;;;;;;;;;;15.40;67.10;;;;;;5080113;28;19912;-88
2022/04/15 08:16:11;;;;;;;;;;;15.50;68.00;;;;;;5072582;28;19920;-88
2022/04/15 08:18:37;;;;;;;;;;;15.60;66.60;;;;;;5073878;28;19916;-88
2022/04/15 08:21:02;;;;;;;;;;;15.70;66.60;;;;;;5072167;28;20271;-89
2022/04/15 08:23:28;;;;;;;;;;;15.80;63.90;;;;;;5076951;28;20022;-88
2022/04/15 08:25:53;;;;;;;;;;;15.80;63.80;;;;;;5074621;28;19938;-88
2022/04/15 08:28:20;;;;;;;;;;;15.90;63.20;;;;;;5074738;28;19918;-88
2022/04/15 08:30:45;;;;;;;;;;;16.00;63.60;;;;;;5071991;28;19912;-88
2022/04/15 08:33:11;;;;;;;;;;;16.20;63.80;;;;;;5073970;28;19935;-88
2022/04/15 08:35:37;;;;;;;;;;;16.30;63.80;;;;;;5084809;28;19916;-88
2022/04/15 08:38:02;;;;;;;;;;;16.50;60.20;;;;;;5079143;28;19916;-88
2022/04/15 08:40:32;;;;;;;;;;;16.60;60.50;;;;;;5076565;28;19966;-88
2022/04/15 08:43:00;;;;;;;;;;;16.50;59.20;;;;;;5084085;28;19915;-88
2022/04/15 08:45:26;;;;;;;;;;;16.50;61.20;;;;;;5073948;28;19954;-88
2022/04/15 08:48:02;;;;;;;;;;;16.60;59.20;;;;;;5090922;28;19919;-88
2022/04/15 08:50:29;;;;;;;;;;;16.70;60.70;;;;;;5071333;28;19921;-88
2022/04/15 08:52:55;;;;;;;;;;;16.80;60.40;;;;;;5077418;28;20515;-88
2022/04/15 08:55:21;;;;;;;;;;;16.90;57.10;;;;;;5074089;28;19916;-88
2022/04/15 08:57:50;;;;;;;;;;;17.00;58.30;;;;;;5082476;28;19958;-88
2022/04/15 09:00:15;;;;;;;;;;;17.20;58.70;;;;;;5083643;28;19955;-88
2022/04/15 09:02:41;;;;;;;;;;;17.30;56.10;;;;;;5078270;28;19966;-88
2022/04/15 09:05:07;;;;;;;;;;;17.40;58.00;;;;;;5082904;28;20003;-88
2022/04/15 09:07:35;;;;;;;;;;;17.60;57.10;;;;;;5085287;28;19940;-88
2022/04/15 09:10:02;;;;;;;;;;;17.70;57.50;;;;;;5072128;28;19913;-88
2022/04/15 09:12:35;;;;;;;;;;;17.80;55.90;;;;;;5071543;28;19920;-88
2022/04/15 09:15:07;;;;;;;;;;;17.80;50.40;;;;;;5070344;28;19933;-87
2022/04/15 09:17:36;;;;;;;;;;;17.80;54.50;;;;;;5074765;28;19920;-88
2022/04/15 09:20:02;;;;;;;;;;;17.80;54.40;;;;;;5073229;28;19919;-88
2022/04/15 09:22:27;;;;;;;;;;;17.90;57.10;;;;;;5072941;28;20255;-88
2022/04/15 09:24:53;;;;;;;;;;;18.00;57.00;;;;;;5070069;28;19920;-88
2022/04/15 09:27:23;;;;;;;;;;;18.10;51.90;;;;;;5072123;28;20302;-88
2022/04/15 09:29:50;;;;;;;;;;;18.20;53.00;;;;;;5070472;28;19952;-88
2022/04/15 09:32:16;;;;;;;;;;;18.30;53.80;;;;;;5072300;28;20496;-88
2022/04/15 09:35:00;;;;;;;;;;;18.30;51.20;;;;;;5071757;28;19995;-88
2022/04/15 09:37:27;;;;;;;;;;;18.40;51.40;;;;;;5072130;28;19912;-88
2022/04/15 09:40:09;;;;;;;;;;;18.60;51.70;;;;;;5076749;28;19923;-88
2022/04/15 09:42:36;;;;;;;;;;;18.70;50.60;;;;;;5073345;28;19920;-88
2022/04/15 09:45:18;;;;;;;;;;;18.70;47.70;;;;;;5073323;28;19958;-88
2022/04/15 09:47:50;;;;;;;;;;;18.80;49.20;;;;;;5075621;28;19912;-88
2022/04/15 09:50:22;;;;;;;;;;;18.90;49.90;;;;;;5072263;28;19959;-88
2022/04/15 09:52:53;;;;;;;;;;;19.10;50.10;;;;;;5072552;28;19912;-88
2022/04/15 09:55:25;;;;;;;;;;;19.10;47.90;;;;;;5078362;28;19916;-88
2022/04/15 09:57:51;;;;;;;;;;;19.30;48.40;;;;;;5075633;28;19912;-88
2022/04/15 10:00:18;;;;;;;;;;;19.30;45.10;;;;;;5071544;28;20030;-88
2022/04/15 10:02:44;;;;;;;;;;;19.50;45.80;;;;;;5070657;28;19920;-88
2022/04/15 10:05:12;;;;;;;;;;;19.50;45.90;;;;;;5072869;28;20426;-88
2022/04/15 10:07:40;;;;;;;;;;;19.50;40.00;;;;;;5073068;28;20389;-88
2022/04/15 10:10:06;;;;;;;;;;;19.60;44.70;;;;;;5069572;28;19999;-88
2022/04/15 10:12:36;;;;;;;;;;;19.70;45.30;;;;;;5070396;28;20061;-88
2022/04/15 10:15:01;;;;;;;;;;;19.80;46.40;;;;;;5072805;28;20003;-88
2022/04/15 10:17:27;;;;;;;;;;;20.10;45.20;;;;;;5073003;28;19940;-88
2022/04/15 10:19:53;;;;;;;;;;;20.30;44.80;;;;;;5073009;28;19916;-88
2022/04/15 10:22:19;;;;;;;;;;;20.40;43.30;;;;;;5072632;28;20004;-88
2022/04/15 10:24:45;;;;;;;;;;;20.50;42.40;;;;;;5072515;28;19914;-89
2022/04/15 10:27:11;;;;;;;;;;;20.70;43.80;;;;;;5072849;28;19908;-88
2022/04/15 10:29:36;;;;;;;;;;;20.60;40.60;;;;;;5072875;28;19908;-88
2022/04/15 10:32:12;;;;;;;;;;;20.70;41.60;;;;;;5072409;28;19917;-88
2022/04/15 10:34:45;;;;;;;;;;;20.70;39.30;;;;;;5072551;28;19909;-88
2022/04/15 10:37:10;;;;;;;;;;;20.80;41.20;;;;;;5072870;28;19908;-88
2022/04/15 10:39:45;;;;;;;;;;;20.90;40.40;;;;;;5072744;28;20012;-88
2022/04/15 10:42:16;;;;;;;;;;;21.00;39.70;;;;;;5072484;28;19913;-88
2022/04/15 10:44:44;;;;;;;;;;;20.90;39.70;;;;;;5072097;28;19919;-88
2022/04/15 10:47:25;;;;;;;;;;;20.90;36.80;;;;;;5071616;28;20428;-88
2022/04/15 10:49:54;;;;;;;;;;;21.10;38.00;;;;;;5069879;28;19942;-88
2022/04/15 10:52:21;;;;;;;;;;;21.30;38.40;;;;;;5070904;28;20293;-88
2022/04/15 10:54:50;;;;;;;;;;;21.40;35.80;;;;;;5068226;28;19913;-89
2022/04/15 10:57:19;;;;;;;;;;;21.40;33.60;;;;;;5072205;28;19951;-88
2022/04/15 11:02:36;;;;;;;;;;;21.70;31.00;;;;;;5073845;28;19918;-88
2022/04/15 11:05:02;;;;;;;;;;;21.80;33.00;;;;;;5075980;28;19919;-88
2022/04/15 11:07:29;;;;;;;;;;;22.00;35.30;;;;;;5075685;28;19916;-88
2022/04/15 11:09:55;;;;;;;;;;;22.20;34.10;;;;;;5075424;28;19912;-88
2022/04/15 11:12:42;;;;;;;;;;;22.30;33.10;;;;;;5075170;28;20393;-88
2022/04/15 11:15:08;;;;;;;;;;;22.40;34.30;;;;;;5074597;28;19960;-88
2022/04/15 11:17:38;;;;;;;;;;;22.60;32.60;;;;;;5075177;28;19948;-89
2022/04/15 11:20:05;;;;;;;;;;;22.90;32.30;;;;;;5075772;28;19916;-89
2022/04/15 11:22:31;;;;;;;;;;;23.10;32.80;;;;;;5075482;28;19932;-89
2022/04/15 11:24:56;;;;;;;;;;;23.20;33.20;;;;;;5075948;28;19913;-88
2022/04/15 11:27:22;;;;;;;;;;;23.00;30.50;;;;;;5075540;28;19936;-88
2022/04/15 11:29:48;;;;;;;;;;;22.80;32.40;;;;;;5072981;28;19913;-88
2022/04/15 11:32:14;;;;;;;;;;;22.70;30.00;;;;;;5068428;28;20014;-88
2022/04/15 11:34:41;;;;;;;;;;;22.50;29.30;;;;;;5071595;28;19920;-88
2022/04/15 11:37:09;;;;;;;;;;;22.40;31.40;;;;;;5073621;28;20405;-89
2022/04/15 11:39:38;;;;;;;;;;;22.80;31.70;;;;;;5075080;28;19927;-88
2022/04/15 11:42:08;;;;;;;;;;;23.00;29.80;;;;;;5072695;28;19924;-89
2022/04/15 11:44:34;;;;;;;;;;;22.90;30.60;;;;;;5087710;28;20286;-89
2022/04/15 11:49:44;;;;;;;;;;;23.40;33.80;;;;;;5074416;28;19920;-88
2022/04/15 11:52:10;;;;;;;;;;;23.80;30.80;;;;;;5073367;28;19908;-89
2022/04/15 11:54:38;;;;;;;;;;;24.20;30.30;;;;;;5072236;28;19916;-89
2022/04/15 11:57:04;;;;;;;;;;;24.60;29.90;;;;;;5078466;28;20367;-89
2022/04/15 11:59:41;;;;;;;;;;;24.80;28.90;;;;;;5074935;28;19944;-89
2022/04/15 12:02:07;;;;;;;;;;;25.20;28.40;;;;;;5078997;28;19912;-89
2022/04/15 12:04:33;;;;;;;;;;;25.70;28.60;;;;;;5075612;28;20388;-89
2022/04/15 12:06:58;;;;;;;;;;;25.90;27.40;;;;;;5071999;28;19916;-89
2022/04/15 12:09:24;;;;;;;;;;;26.00;27.30;;;;;;5074264;28;19918;-89
2022/04/15 12:11:51;;;;;;;;;;;26.10;27.10;;;;;;5074641;28;19917;-88
2022/04/15 12:14:17;;;;;;;;;;;25.80;26.50;;;;;;5075232;28;19966;-89
2022/04/15 12:16:44;;;;;;;;;;;25.80;28.20;;;;;;5075310;28;19924;-88
2022/04/15 12:19:10;;;;;;;;;;;25.50;26.50;;;;;;5072215;28;20014;-89
2022/04/15 12:21:36;;;;;;;;;;;25.40;28.10;;;;;;5072801;28;19912;-89
2022/04/15 12:24:05;;;;;;;;;;;25.80;26.20;;;;;;5074652;28;19963;-88
2022/04/15 12:26:47;;;;;;;;;;;25.30;26.40;;;;;;5072193;28;20374;-88
2022/04/15 12:32:17;;;;;;;;;;;25.60;26.60;;;;;;5072813;28;19919;-89
2022/04/15 12:34:43;;;;;;;;;;;25.80;26.90;;;;;;5072054;28;19936;-88
2022/04/15 12:37:27;;;;;;;;;;;26.30;25.70;;;;;;5074146;28;20381;-89
2022/04/15 12:39:53;;;;;;;;;;;27.20;28.00;;;;;;5073359;28;19943;-89
2022/04/15 12:42:29;;;;;;;;;;;27.90;25.80;;;;;;5070627;28;19919;-89
2022/04/15 12:44:54;;;;;;;;;;;28.70;26.00;;;;;;5074756;28;19924;-89
2022/04/15 12:47:23;;;;;;;;;;;29.70;24.90;;;;;;5087677;28;19913;-89
2022/04/15 12:49:49;;;;;;;;;;;30.80;23.70;;;;;;5078569;28;19920;-89
2022/04/15 12:52:19;;;;;;;;;;;30.80;21.60;;;;;;5073361;28;19920;-89
2022/04/15 12:54:56;;;;;;;;;;;30.90;21.40;;;;;;5076715;28;19974;-90
2022/04/15 12:57:22;;;;;;;;;;;31.20;21.80;;;;;;5068721;28;20369;-89
2022/04/15 12:59:48;;;;;;;;;;;32.10;21.00;;;;;;5072486;28;19913;-89
2022/04/15 13:02:13;;;;;;;;;;;31.70;20.00;;;;;;5074611;28;19948;-89
2022/04/15 13:04:39;;;;;;;;;;;31.40;22.00;;;;;;5073821;28;19924;-88
2022/04/15 13:07:04;;;;;;;;;;;30.40;22.90;;;;;;5074859;28;19912;-88
2022/04/15 13:09:30;;;;;;;;;;;29.30;21.40;;;;;;5077049;28;19912;-88
2022/04/15 13:11:56;;;;;;;;;;;29.50;23.30;;;;;;5075169;28;20307;-89
2022/04/15 13:14:22;;;;;;;;;;;30.10;24.30;;;;;;5072077;28;20400;-89
2022/04/15 13:16:49;;;;;;;;;;;31.30;23.20;;;;;;5069033;28;19964;-89
2022/04/15 13:19:16;;;;;;;;;;;32.20;22.00;;;;;;5067804;28;20436;-89
2022/04/15 13:21:41;;;;;;;;;;;32.60;21.10;;;;;;5071907;28;21017;-89
2022/04/15 13:24:07;;;;;;;;;;;32.50;20.40;;;;;;5073044;28;19912;-89
2022/04/15 13:26:32;;;;;;;;;;;32.80;19.10;;;;;;5072373;28;19916;-89
2022/04/15 13:28:58;;;;;;;;;;;33.60;20.10;;;;;;5073471;28;19912;-89
2022/04/15 13:31:24;;;;;;;;;;;33.90;20.30;;;;;;5069914;28;20416;-89
2022/04/15 13:33:49;;;;;;;;;;;33.20;19.50;;;;;;5074402;28;19920;-89
2022/04/15 13:36:15;;;;;;;;;;;32.90;20.00;;;;;;5071410;28;19916;-89
2022/04/15 13:38:41;;;;;;;;;;;32.80;20.60;;;;;;5078233;28;19913;-89
2022/04/15 13:41:06;;;;;;;;;;;32.80;20.50;;;;;;5080216;28;20419;-89
2022/04/15 13:43:32;;;;;;;;;;;32.60;20.90;;;;;;5070982;28;20367;-89
2022/04/15 13:45:58;;;;;;;;;;;32.70;20.00;;;;;;5077533;28;19913;-89
2022/04/15 13:48:23;;;;;;;;;;;32.10;19.90;;;;;;5073021;28;19947;-89
2022/04/15 13:50:49;;;;;;;;;;;31.90;21.40;;;;;;5074471;28;19972;-89
2022/04/15 13:56:44;;;;;;;;;;;32.50;19.30;;;;;;5075043;28;19963;-90
2022/04/15 13:58:45;;;;;;;;;;;32.00;21.00;;;;;;5064034;28;19955;-90
2022/04/15 14:01:23;;;;;;;;;;;32.30;21.20;;;;;;5075569;28;19954;-90
2022/04/15 14:03:50;;;;;;;;;;;33.50;20.70;;;;;;5068779;28;19974;-90
2022/04/15 14:06:15;;;;;;;;;;;33.80;20.10;;;;;;5071154;28;19913;-90
2022/04/15 14:08:41;;;;;;;;;;;33.90;19.70;;;;;;5074876;28;19962;-90
2022/04/15 14:11:07;;;;;;;;;;;35.00;19.30;;;;;;5071375;28;19958;-90
2022/04/15 14:13:34;;;;;;;;;;;34.50;20.00;;;;;;5069519;28;19913;-90
2022/04/15 14:16:00;;;;;;;;;;;33.60;18.20;;;;;;5096251;22;19962;-90
2022/04/15 14:18:25;;;;;;;;;;;33.20;19.90;;;;;;5106824;28;20367;-90
2022/04/15 14:20:51;;;;;;;;;;;34.20;19.10;;;;;;5103306;28;20046;-90
2022/04/15 14:23:16;;;;;;;;;;;34.20;17.20;;;;;;5101795;28;20385;-89
2022/04/15 14:25:42;;;;;;;;;;;33.40;18.00;;;;;;5102941;28;20284;-89
2022/04/15 14:28:08;;;;;;;;;;;32.70;18.30;;;;;;5100829;28;19923;-90
2022/04/15 14:30:33;;;;;;;;;;;33.30;18.50;;;;;;5100247;28;20007;-90
2022/04/15 14:32:59;;;;;;;;;;;34.20;19.50;;;;;;5093645;28;19912;-90
2022/04/15 14:35:25;;;;;;;;;;;34.00;19.80;;;;;;5104232;28;20561;-90